Terminal Aerodrome Forecast
Issued by NWS Sterling, VA

Current Version | Previous Version | Text Only | Print | Product List | Glossary Off
Versions: 1 2 3 4 5 6 7 8 9 10 11 12 13 14 15 16 17 18 19 20 21 22 23 24 25 26

000
FTUS41 KLWX 270253 AAA
TAFIAD
TAF AMD
KIAD 270253Z 2703/2806 34019G22KT P6SM FEW015 SCT025 OVC060
     FM270700 32015KT 5SM -RA OVC025
     FM271100 34007KT 3SM -RA OVC015
     FM271300 34005KT P6SM OVC025
     FM271800 34009KT P6SM BKN050=

USA.gov is the U.S. government's official web portal to all federal, state and local government web resources and services.